createdAt,value
2023-04-20T00:00:52.427Z,3.47
2023-04-20T00:03:21.438Z,5.90
2023-04-20T00:05:51.056Z,4.67
2023-04-20T00:08:18.785Z,2.60
2023-04-20T00:10:46.639Z,3.87
2023-04-20T00:13:14.362Z,3.63
2023-04-20T00:15:42.201Z,3.03
2023-04-20T00:18:09.865Z,3.30
2023-04-20T00:20:38.436Z,3.10
2023-04-20T00:23:08.133Z,3.50
2023-04-20T00:25:35.964Z,4.50
2023-04-20T00:28:03.582Z,6.57
2023-04-20T00:30:31.928Z,3.20
2023-04-20T00:32:59.600Z,6.23
2023-04-20T00:35:27.275Z,4.10
2023-04-20T00:37:54.854Z,2.50
2023-04-20T00:40:24.134Z,6.10
2023-04-20T00:42:51.758Z,5.83
2023-04-20T00:45:19.432Z,7.93
2023-04-20T00:47:47.367Z,4.00
2023-04-20T00:50:15.783Z,5.13
2023-04-20T00:52:43.623Z,2.73
2023-04-20T00:55:12.159Z,5.57
2023-04-20T00:57:41.705Z,4.00
2023-04-20T01:00:10.876Z,5.73
2023-04-20T01:02:38.741Z,4.03
2023-04-20T01:05:07.176Z,5.57
2023-04-20T01:07:34.797Z,8.60
2023-04-20T01:10:02.427Z,5.53
2023-04-20T01:12:30.036Z,7.43
2023-04-20T01:14:59.010Z,7.57
2023-04-20T01:17:26.887Z,4.60
2023-04-20T01:19:54.581Z,5.20
2023-04-20T01:22:23.868Z,4.80
2023-04-20T01:24:51.813Z,4.80
2023-04-20T01:27:19.766Z,6.17
2023-04-20T01:29:47.657Z,4.43
2023-04-20T01:32:15.585Z,4.60
2023-04-20T01:34:43.214Z,7.70
2023-04-20T01:37:10.939Z,4.90
2023-04-20T01:39:41.328Z,7.33
2023-04-20T01:42:09.217Z,5.50
2023-04-20T01:44:36.841Z,5.50
2023-04-20T01:47:04.680Z,5.53
2023-04-20T01:49:32.584Z,10.23
2023-04-20T01:52:00.221Z,5.17
2023-04-20T01:54:27.837Z,7.50
2023-04-20T01:56:57.736Z,5.57
2023-04-20T01:59:25.621Z,9.40
2023-04-20T02:01:53.439Z,6.43
2023-04-20T02:04:21.640Z,4.60
2023-04-20T02:06:49.250Z,6.90
2023-04-20T02:09:17.012Z,5.70
2023-04-20T02:11:44.916Z,3.97
2023-04-20T02:14:14.005Z,7.50
2023-04-20T02:16:42.543Z,7.63
2023-04-20T02:19:10.274Z,4.40
2023-04-20T02:21:37.933Z,4.37
2023-04-20T02:24:06.384Z,8.30
2023-04-20T02:26:34.058Z,7.37
2023-04-20T02:29:01.691Z,10.10
2023-04-20T02:31:30.931Z,8.03
2023-04-20T02:33:58.681Z,6.37
2023-04-20T02:36:26.978Z,6.77
2023-04-20T02:38:54.649Z,6.00
2023-04-20T02:41:22.266Z,6.80
2023-04-20T02:43:50.031Z,7.53
2023-04-20T02:46:18.728Z,5.10
2023-04-20T02:48:47.735Z,8.50
2023-04-20T02:51:15.412Z,7.53
2023-04-20T02:53:43.055Z,7.23
2023-04-20T02:56:10.867Z,7.53
2023-04-20T02:58:38.534Z,9.47
2023-04-20T03:01:07.162Z,5.53
2023-04-20T03:03:34.951Z,6.70
2023-04-20T03:06:04.110Z,4.53
2023-04-20T03:08:31.816Z,6.93
2023-04-20T03:10:59.446Z,6.30
2023-04-20T03:13:27.080Z,5.70
2023-04-20T03:15:54.720Z,6.17
2023-04-20T03:18:22.359Z,5.00
2023-04-20T03:20:50.002Z,9.93
2023-04-20T03:23:19.009Z,7.23
2023-04-20T03:25:46.642Z,6.93
2023-04-20T03:28:14.348Z,5.97
2023-04-20T03:30:42.069Z,8.77
2023-04-20T03:33:09.923Z,5.50
2023-04-20T03:35:39.360Z,5.00
2023-04-20T03:38:07.311Z,5.00
2023-04-20T03:40:36.330Z,8.07
2023-04-20T03:43:03.961Z,7.20
2023-04-20T03:45:31.614Z,9.63
2023-04-20T03:47:59.399Z,9.87
2023-04-20T03:50:27.253Z,9.63
2023-04-20T03:52:54.918Z,8.83
2023-04-20T03:55:22.601Z,7.80
2023-04-20T03:57:51.578Z,10.10
2023-04-20T04:00:19.229Z,10.73
2023-04-20T04:02:47.046Z,8.37
2023-04-20T04:05:15.117Z,9.17
2023-04-20T04:07:42.831Z,10.33
2023-04-20T04:10:11.478Z,7.60
2023-04-20T04:12:39.141Z,7.87
2023-04-20T04:15:09.749Z,6.40
2023-04-20T04:17:37.418Z,10.00
2023-04-20T04:20:08.091Z,10.00
2023-04-20T04:22:35.805Z,11.30
2023-04-20T04:25:03.491Z,8.47
2023-04-20T04:27:34.704Z,8.80
2023-04-20T04:30:03.163Z,11.53
2023-04-20T04:32:34.499Z,11.63
2023-04-20T04:35:02.540Z,9.90
2023-04-20T04:37:30.218Z,9.97
2023-04-20T04:39:58.478Z,13.50
2023-04-20T04:42:27.521Z,10.13
2023-04-20T04:44:56.131Z,10.83
2023-04-20T04:47:24.251Z,9.13
2023-04-20T04:49:53.274Z,12.53
2023-04-20T04:52:20.972Z,9.63
2023-04-20T04:54:49.438Z,12.27
2023-04-20T04:57:17.070Z,11.33
2023-04-20T04:59:44.879Z,9.20
2023-04-20T05:02:12.584Z,11.73
2023-04-20T05:04:40.363Z,10.00
2023-04-20T05:07:10.348Z,12.30
2023-04-20T05:09:38.170Z,14.57
2023-04-20T05:12:07.903Z,11.93
2023-04-20T05:14:35.610Z,7.97
2023-04-20T05:17:03.382Z,11.27
2023-04-20T05:19:31.064Z,11.50
2023-04-20T05:21:58.661Z,11.93
2023-04-20T05:24:27.764Z,11.33
2023-04-20T05:26:55.395Z,15.80
2023-04-20T05:29:23.023Z,11.03
2023-04-20T05:31:50.676Z,14.80
2023-04-20T05:34:18.334Z,11.97
2023-04-20T05:36:45.970Z,17.03
2023-04-20T05:39:13.657Z,15.50
2023-04-20T05:41:42.728Z,13.37
2023-04-20T05:44:10.406Z,13.50
2023-04-20T05:46:38.079Z,9.13
2023-04-20T05:49:06.406Z,11.37
2023-04-20T05:51:34.124Z,14.70
2023-04-20T05:54:01.980Z,11.73
2023-04-20T05:56:29.793Z,12.93
2023-04-20T05:59:00.106Z,9.87
2023-04-20T06:01:27.894Z,14.70
2023-04-20T06:03:55.653Z,12.97
2023-04-20T06:06:23.397Z,14.77
2023-04-20T06:08:52.225Z,10.43
2023-04-20T06:11:19.860Z,13.27
2023-04-20T06:13:47.481Z,14.47
2023-04-20T06:16:16.605Z,13.97
2023-04-20T06:18:44.368Z,14.30
2023-04-20T06:21:12.075Z,14.37
2023-04-20T06:23:40.815Z,18.20
2023-04-20T06:26:10.228Z,11.37
2023-04-20T06:28:38.251Z,12.27
2023-04-20T06:31:06.598Z,16.10
2023-04-20T06:33:35.751Z,12.77
2023-04-20T06:36:03.433Z,12.83
2023-04-20T06:38:31.336Z,14.60
2023-04-20T06:41:01.951Z,17.90
2023-04-20T06:43:30.221Z,15.60
2023-04-20T06:45:58.130Z,14.57
2023-04-20T06:48:32.272Z,13.27
2023-04-20T06:51:02.539Z,13.10
2023-04-20T06:53:30.185Z,17.83
2023-04-20T06:55:58.435Z,13.47
2023-04-20T06:58:26.121Z,12.97
2023-04-20T07:00:54.068Z,15.00
2023-04-20T07:03:21.840Z,14.40
2023-04-20T07:05:49.558Z,14.70
2023-04-20T07:08:18.546Z,17.20
2023-04-20T07:10:46.174Z,10.03
2023-04-20T07:13:13.823Z,16.60
2023-04-20T07:15:41.502Z,12.77
2023-04-20T07:18:09.140Z,13.53
2023-04-20T07:20:36.822Z,14.50
2023-04-20T07:23:04.965Z,15.53
2023-04-20T07:25:33.984Z,16.03
2023-04-20T07:28:01.664Z,14.40
2023-04-20T07:30:29.318Z,19.20
2023-04-20T07:32:56.987Z,12.43
2023-04-20T07:35:24.873Z,15.83
2023-04-20T07:37:52.506Z,17.63
2023-04-20T07:40:20.284Z,11.37
2023-04-20T07:42:49.275Z,15.80
2023-04-20T07:45:17.099Z,18.20
2023-04-20T07:47:47.156Z,14.93
2023-04-20T07:50:15.229Z,16.10
2023-04-20T07:52:44.343Z,16.37
2023-04-20T07:55:14.070Z,17.60
2023-04-20T07:57:44.306Z,15.00
2023-04-20T08:00:15.087Z,11.87
2023-04-20T08:02:42.853Z,17.27
2023-04-20T08:05:11.120Z,15.10
2023-04-20T08:07:39.298Z,15.47
2023-04-20T08:10:08.283Z,14.63
2023-04-20T08:12:36.264Z,16.67
2023-04-20T08:15:06.381Z,16.03
2023-04-20T08:17:35.657Z,15.13
2023-04-20T08:20:05.793Z,14.00
2023-04-20T08:22:33.993Z,14.63
2023-04-20T08:25:02.099Z,14.33
2023-04-20T08:27:30.612Z,13.77
2023-04-20T08:29:58.817Z,12.17
2023-04-20T08:32:27.075Z,14.20
2023-04-20T08:34:56.375Z,17.00
2023-04-20T08:37:25.217Z,16.70
2023-04-20T08:39:52.942Z,18.73
2023-04-20T08:42:21.028Z,12.37
2023-04-20T08:44:48.713Z,15.80
2023-04-20T08:47:16.420Z,14.40
2023-04-20T08:49:45.765Z,20.30
2023-04-20T08:52:14.970Z,12.10
2023-04-20T08:54:55.222Z,11.30
2023-04-20T08:57:24.782Z,13.53
2023-04-20T08:59:52.499Z,16.80
2023-04-20T09:02:20.358Z,13.90
2023-04-20T09:04:49.104Z,12.97
2023-04-20T09:07:22.689Z,18.87
2023-04-20T09:09:57.218Z,11.83
2023-04-20T09:12:25.540Z,15.63
2023-04-20T09:14:53.815Z,15.73
2023-04-20T09:17:33.039Z,17.80
2023-04-20T09:20:01.046Z,19.10
2023-04-20T09:22:34.435Z,17.57
2023-04-20T09:25:02.253Z,14.57
2023-04-20T09:27:29.934Z,18.20
2023-04-20T09:29:58.590Z,16.03
2023-04-20T09:32:28.035Z,13.47
2023-04-20T09:34:56.024Z,16.30
2023-04-20T09:37:23.939Z,14.13
2023-04-20T09:39:54.604Z,19.17
2023-04-20T09:42:24.849Z,13.47
2023-04-20T09:44:54.780Z,19.77
2023-04-20T09:47:25.889Z,14.80
2023-04-20T09:49:54.747Z,17.33
2023-04-20T09:52:23.735Z,16.40
2023-04-20T09:54:54.280Z,15.43
2023-04-20T09:57:22.623Z,15.87
2023-04-20T09:59:53.450Z,15.93
2023-04-20T10:02:21.413Z,18.87
2023-04-20T10:04:56.055Z,20.80
2023-04-20T10:07:27.646Z,17.27
2023-04-20T10:10:08.128Z,13.63
2023-04-20T10:12:47.307Z,15.93
2023-04-20T10:15:14.962Z,15.33
2023-04-20T10:17:42.778Z,18.20
2023-04-20T10:20:20.275Z,12.90
2023-04-20T10:22:48.258Z,14.53
2023-04-20T10:25:20.446Z,13.53
2023-04-20T10:27:56.372Z,13.97
2023-04-20T10:30:25.052Z,15.37
2023-04-20T10:33:04.199Z,16.07
2023-04-20T10:35:44.538Z,10.63
2023-04-20T10:38:13.833Z,13.53
2023-04-20T10:40:43.137Z,14.33
2023-04-20T10:43:21.182Z,12.97
2023-04-20T10:45:49.638Z,10.33
2023-04-20T10:48:18.341Z,12.00
2023-04-20T10:50:49.527Z,14.57
2023-04-20T10:53:21.515Z,12.43
2023-04-20T10:55:59.513Z,10.90
2023-04-20T10:58:27.375Z,15.57
2023-04-20T11:00:59.660Z,13.07
2023-04-20T11:03:30.427Z,13.27
2023-04-20T11:06:01.277Z,11.53
2023-04-20T11:08:39.687Z,11.53
2023-04-20T11:11:19.082Z,9.87
2023-04-20T11:13:46.808Z,11.13
2023-04-20T11:16:16.059Z,9.80
2023-04-20T11:18:52.451Z,9.93
2023-04-20T11:21:20.346Z,10.63
2023-04-20T11:23:48.918Z,10.23
2023-04-20T11:26:18.090Z,11.10
2023-04-20T11:28:55.193Z,10.77
2023-04-20T11:31:24.011Z,11.33
2023-04-20T11:33:51.868Z,10.63
2023-04-20T11:36:20.610Z,10.90
2023-04-20T11:38:48.247Z,10.87
2023-04-20T11:41:15.925Z,10.00
2023-04-20T11:43:45.528Z,9.70
2023-04-20T11:46:18.936Z,11.20
2023-04-20T11:48:47.440Z,11.33
2023-04-20T11:51:15.909Z,11.87
2023-04-20T11:53:43.536Z,13.13
2023-04-20T11:56:11.210Z,8.97
2023-04-20T11:58:38.879Z,11.27
2023-04-20T12:01:07.960Z,12.00
2023-04-20T12:03:35.794Z,15.90
2023-04-20T12:06:03.796Z,11.90
2023-04-20T12:08:32.095Z,10.03
2023-04-20T12:10:59.708Z,10.80
2023-04-20T12:13:27.380Z,15.27
2023-04-20T12:15:55.102Z,14.07
2023-04-20T12:18:24.240Z,15.40
2023-04-20T12:20:51.875Z,13.60
2023-04-20T12:23:19.514Z,11.10
2023-04-20T12:25:47.258Z,12.87
2023-04-20T12:28:15.574Z,11.47
2023-04-20T12:30:43.201Z,14.70
2023-04-20T12:33:11.022Z,13.57
2023-04-20T12:35:40.327Z,12.70
2023-04-20T12:38:07.976Z,12.30
2023-04-20T12:40:36.206Z,15.73
2023-04-20T12:43:04.052Z,12.80
2023-04-20T12:45:31.707Z,14.37
2023-04-20T12:48:00.629Z,15.87
2023-04-20T12:50:33.458Z,13.27
2023-04-20T12:53:02.437Z,15.03
2023-04-20T12:55:30.295Z,16.40
2023-04-20T12:57:57.952Z,13.63
2023-04-20T13:00:25.715Z,14.13
2023-04-20T13:02:53.546Z,13.07
2023-04-20T13:05:21.519Z,14.60
2023-04-20T13:07:49.208Z,15.30
2023-04-20T13:10:18.361Z,11.87
2023-04-20T13:12:46.091Z,14.33
2023-04-20T13:15:14.148Z,15.83
2023-04-20T13:17:42.007Z,12.93
2023-04-20T13:20:10.759Z,12.97
2023-04-20T13:22:47.009Z,17.80
2023-04-20T13:25:26.448Z,15.70
2023-04-20T13:27:55.031Z,19.40
2023-04-20T13:30:24.488Z,19.53
2023-04-20T13:32:52.624Z,17.47
2023-04-20T13:35:20.349Z,16.87
2023-04-20T13:37:48.120Z,17.53
2023-04-20T13:40:16.038Z,15.43
2023-04-20T13:42:45.067Z,17.23
2023-04-20T13:45:13.295Z,19.60
2023-04-20T13:47:41.586Z,18.83
2023-04-20T13:50:10.365Z,18.00
2023-04-20T13:52:38.359Z,14.40
2023-04-20T13:55:06.537Z,15.47
2023-04-20T13:57:34.202Z,14.50
2023-04-20T14:00:03.917Z,15.30
2023-04-20T14:02:31.666Z,12.33
2023-04-20T14:04:59.401Z,12.83
2023-04-20T14:07:27.090Z,13.97
2023-04-20T14:09:56.475Z,12.93
2023-04-20T14:12:24.305Z,12.87
2023-04-20T14:14:52.135Z,14.27
2023-04-20T14:17:21.133Z,13.07
2023-04-20T14:19:49.523Z,13.03
2023-04-20T14:22:17.182Z,14.60
2023-04-20T14:24:45.607Z,14.07
2023-04-20T14:27:13.196Z,16.33
2023-04-20T14:29:40.921Z,16.00
2023-04-20T14:32:08.570Z,16.47
2023-04-20T14:34:37.525Z,13.73
2023-04-20T14:37:05.209Z,14.67
2023-04-20T14:39:32.920Z,17.27
2023-04-20T14:42:01.178Z,15.60
2023-04-20T14:44:28.797Z,15.77
2023-04-20T14:46:57.123Z,15.93
2023-04-20T14:49:24.913Z,16.57
2023-04-20T14:51:53.899Z,14.23
2023-04-20T14:54:21.557Z,19.13
2023-04-20T14:56:49.206Z,17.87
2023-04-20T14:59:17.363Z,17.97
2023-04-20T15:01:58.720Z,17.97
2023-04-20T15:04:29.303Z,19.03
2023-04-20T15:06:58.472Z,23.30
2023-04-20T15:09:26.275Z,19.90
2023-04-20T15:11:53.915Z,21.63
2023-04-20T15:14:21.745Z,20.90
2023-04-20T15:16:51.897Z,23.40
2023-04-20T15:19:19.929Z,21.87
2023-04-20T15:21:47.628Z,23.77
2023-04-20T15:24:16.721Z,17.07
2023-04-20T15:26:44.587Z,19.33
2023-04-20T15:29:12.205Z,22.67
2023-04-20T15:31:40.381Z,22.83
2023-04-20T15:34:08.035Z,20.87
2023-04-20T15:36:35.754Z,19.53
2023-04-20T15:39:03.808Z,18.10
2023-04-20T15:41:32.822Z,24.23
2023-04-20T15:44:00.480Z,22.07
2023-04-20T15:46:28.371Z,19.87
2023-04-20T15:48:56.071Z,19.83
2023-04-20T15:51:24.773Z,24.37
2023-04-20T15:53:52.695Z,23.30
2023-04-20T15:56:22.693Z,19.63
2023-04-20T15:58:52.677Z,22.27
2023-04-20T16:01:20.845Z,25.33
2023-04-20T16:03:49.870Z,20.23
2023-04-20T16:06:17.596Z,22.97
2023-04-20T16:08:45.336Z,21.50
2023-04-20T16:11:12.949Z,24.73
2023-04-20T16:13:40.815Z,20.27
2023-04-20T16:16:10.086Z,21.90
2023-04-20T16:18:37.770Z,20.87
2023-04-20T16:21:05.448Z,23.10
2023-04-20T16:23:33.087Z,22.10
2023-04-20T16:26:00.748Z,22.10
2023-04-20T16:28:28.408Z,23.40
2023-04-20T16:30:56.110Z,20.83
2023-04-20T16:33:25.520Z,20.20
2023-04-20T16:35:53.207Z,22.33
2023-04-20T16:38:20.992Z,19.17
2023-04-20T16:40:48.630Z,19.93
2023-04-20T16:43:16.264Z,24.00
2023-04-20T16:45:43.878Z,21.63
2023-04-20T16:48:11.725Z,19.93
2023-04-20T16:50:45.531Z,18.57
2023-04-20T16:53:13.170Z,15.87
2023-04-20T16:55:40.828Z,21.33
2023-04-20T16:58:08.479Z,19.57
2023-04-20T17:00:36.493Z,18.50
2023-04-20T17:03:10.313Z,19.13
2023-04-20T17:05:42.152Z,16.27
2023-04-20T17:08:10.051Z,22.87
2023-04-20T17:10:38.489Z,16.60
2023-04-20T17:13:06.216Z,21.27
2023-04-20T17:15:33.904Z,17.33
2023-04-20T17:18:02.199Z,18.90
2023-04-20T17:20:29.898Z,15.53
2023-04-20T17:22:58.899Z,16.20
2023-04-20T17:25:26.807Z,14.97
2023-04-20T17:27:54.425Z,17.43
2023-04-20T17:30:22.136Z,15.37
2023-04-20T17:32:49.796Z,17.80
2023-04-20T17:35:17.529Z,13.90
2023-04-20T17:37:45.708Z,21.60
2023-04-20T17:40:14.892Z,19.13
2023-04-20T17:42:42.515Z,15.97
2023-04-20T17:45:10.839Z,17.47
2023-04-20T17:47:38.631Z,18.47
2023-04-20T17:50:07.568Z,18.50
2023-04-20T17:52:35.185Z,19.93
2023-04-20T17:55:02.991Z,21.10
2023-04-20T17:57:32.002Z,18.57
2023-04-20T17:59:59.699Z,20.53
2023-04-20T18:02:28.052Z,18.57
2023-04-20T18:04:59.666Z,17.50
2023-04-20T18:07:27.963Z,20.10
2023-04-20T18:09:57.115Z,20.03
2023-04-20T18:12:24.899Z,15.17
2023-04-20T18:14:53.949Z,12.53
2023-04-20T18:17:21.655Z,22.17
2023-04-20T18:19:49.304Z,18.40
2023-04-20T18:22:16.923Z,20.70
2023-04-20T18:24:44.623Z,18.07
2023-04-20T18:27:12.278Z,18.13
2023-04-20T18:29:40.086Z,22.77
2023-04-20T18:32:09.124Z,19.03
2023-04-20T18:34:36.834Z,20.83
2023-04-20T18:37:04.494Z,17.90
2023-04-20T18:39:32.124Z,19.80
2023-04-20T18:41:59.758Z,19.37
2023-04-20T18:44:28.397Z,16.57
2023-04-20T18:46:56.104Z,17.77
2023-04-20T18:49:25.119Z,17.57
2023-04-20T18:51:52.843Z,18.50
2023-04-20T18:54:20.682Z,13.63
2023-04-20T18:56:50.177Z,18.43
2023-04-20T18:59:18.503Z,15.67
2023-04-20T19:01:46.197Z,21.23
2023-04-20T19:04:14.020Z,21.87
2023-04-20T19:06:43.069Z,16.17
2023-04-20T19:09:10.916Z,16.30
2023-04-20T19:11:38.572Z,19.47
2023-04-20T19:14:06.194Z,16.17
2023-04-20T19:16:34.850Z,13.70
2023-04-20T19:19:03.737Z,19.83
2023-04-20T19:21:32.280Z,19.90
2023-04-20T19:24:01.398Z,16.17
2023-04-20T19:26:29.030Z,17.17
2023-04-20T19:28:58.151Z,19.87
2023-04-20T19:31:26.389Z,13.10
2023-04-20T19:33:56.534Z,17.67
2023-04-20T19:36:24.902Z,18.97
2023-04-20T19:38:52.522Z,14.40
2023-04-20T19:41:22.165Z,16.13
2023-04-20T19:43:51.654Z,16.47
2023-04-20T19:46:20.267Z,15.20
2023-04-20T19:48:47.948Z,14.70
2023-04-20T19:51:15.604Z,14.37
2023-04-20T19:53:43.302Z,18.23
2023-04-20T19:56:11.005Z,14.70
2023-04-20T19:58:40.083Z,13.97
2023-04-20T20:01:07.948Z,14.53
2023-04-20T20:03:35.814Z,15.47
2023-04-20T20:06:04.521Z,14.57
2023-04-20T20:08:32.255Z,17.83
2023-04-20T20:10:59.945Z,16.83
2023-04-20T20:13:27.985Z,15.97
2023-04-20T20:15:57.039Z,21.27
2023-04-20T20:18:24.718Z,15.70
2023-04-20T20:20:53.555Z,13.87
2023-04-20T20:23:21.256Z,18.33
2023-04-20T20:25:48.981Z,19.67
2023-04-20T20:28:16.619Z,12.97
2023-04-20T20:30:45.274Z,17.73
2023-04-20T20:33:14.504Z,20.77
2023-04-20T20:35:42.732Z,20.00
2023-04-20T20:38:10.847Z,17.40
2023-04-20T20:40:39.635Z,15.37
2023-04-20T20:43:07.412Z,16.13
2023-04-20T20:45:35.155Z,13.47
2023-04-20T20:48:03.420Z,17.93
2023-04-20T20:50:32.611Z,15.37
2023-04-20T20:53:00.258Z,14.77
2023-04-20T20:55:28.468Z,18.70
2023-04-20T20:57:56.107Z,13.20
2023-04-20T21:00:23.760Z,17.73
2023-04-20T21:02:52.452Z,13.97
2023-04-20T21:05:22.777Z,16.20
2023-04-20T21:07:51.831Z,15.23
2023-04-20T21:10:19.562Z,15.33
2023-04-20T21:12:47.175Z,15.07
2023-04-20T21:15:15.035Z,20.40
2023-04-20T21:17:42.701Z,19.00
2023-04-20T21:20:11.603Z,18.33
2023-04-20T21:22:39.857Z,14.80
2023-04-20T21:25:09.369Z,17.83
2023-04-20T21:27:37.025Z,14.27
2023-04-20T21:30:05.024Z,19.00
2023-04-20T21:32:32.652Z,20.53
2023-04-20T21:35:00.301Z,20.17
2023-04-20T21:37:27.988Z,18.83
2023-04-20T21:39:55.592Z,19.10
2023-04-20T21:42:24.590Z,19.43
2023-04-20T21:44:52.222Z,19.80
2023-04-20T21:47:19.849Z,17.70
2023-04-20T21:49:47.505Z,16.53
2023-04-20T21:52:15.126Z,12.47
2023-04-20T21:54:42.760Z,15.43
2023-04-20T21:57:10.510Z,17.97
2023-04-20T21:59:39.487Z,14.63
2023-04-20T22:02:07.462Z,17.63
2023-04-20T22:04:35.812Z,18.37
2023-04-20T22:07:03.873Z,18.33
2023-04-20T22:09:31.496Z,25.07
2023-04-20T22:12:01.819Z,16.47
2023-04-20T22:14:29.752Z,22.10
2023-04-20T22:16:59.438Z,18.47
2023-04-20T22:19:27.116Z,14.90
2023-04-20T22:21:54.788Z,18.60
2023-04-20T22:24:22.423Z,17.07
2023-04-20T22:26:50.056Z,19.70
2023-04-20T22:29:17.906Z,16.17
2023-04-20T22:31:45.843Z,20.03
2023-04-20T22:34:15.061Z,16.53
2023-04-20T22:36:42.744Z,15.83
2023-04-20T22:39:10.770Z,16.50
2023-04-20T22:41:38.478Z,20.23
2023-04-20T22:44:06.169Z,19.73
2023-04-20T22:46:33.913Z,20.30
2023-04-20T22:49:01.609Z,15.53
2023-04-20T22:51:30.851Z,22.60
2023-04-20T22:54:00.855Z,20.57
2023-04-20T22:56:29.335Z,20.83
2023-04-20T22:58:57.008Z,18.00
2023-04-20T23:01:24.660Z,23.27
2023-04-20T23:03:52.441Z,13.63
2023-04-20T23:06:21.995Z,15.70
2023-04-20T23:08:51.333Z,19.67
2023-04-20T23:11:20.734Z,17.10
2023-04-20T23:13:48.411Z,15.83
2023-04-20T23:16:16.542Z,17.03
2023-04-20T23:18:44.206Z,15.53
2023-04-20T23:21:11.854Z,15.27
2023-04-20T23:23:39.536Z,16.60
2023-04-20T23:26:08.551Z,16.80
2023-04-20T23:28:36.349Z,21.77
2023-04-20T23:31:04.008Z,22.20
2023-04-20T23:33:31.627Z,17.10
2023-04-20T23:35:59.414Z,16.50
2023-04-20T23:38:27.160Z,19.40
2023-04-20T23:40:55.046Z,16.87
2023-04-20T23:43:24.062Z,25.30
2023-04-20T23:45:51.741Z,16.47
2023-04-20T23:48:19.384Z,17.43
2023-04-20T23:50:49.563Z,14.93
2023-04-20T23:53:17.215Z,16.20
2023-04-20T23:55:48.187Z,15.13
2023-04-20T23:58:15.790Z,14.67
